sensor_id;sensor_type;location;lat;lon;timestamp;pressure;altitude;pressure_sealevel;temperature;humidity
64404;BME280;50726;54.912;-8.392;2023-02-15T00:01:29;100535.34;;;32.01;38.89
64404;BME280;50726;54.912;-8.392;2023-02-15T00:03:54;100524.56;;;30.38;39.76
64404;BME280;50726;54.912;-8.392;2023-02-15T00:06:20;100527.59;;;30.18;40.27
64404;BME280;50726;54.912;-8.392;2023-02-15T00:08:45;100533.38;;;28.48;41.40
64404;BME280;50726;54.912;-8.392;2023-02-15T00:11:15;100528.06;;;31.21;39.29
64404;BME280;50726;54.912;-8.392;2023-02-15T00:13:41;100501.19;;;29.70;40.26
64404;BME280;50726;54.912;-8.392;2023-02-15T00:16:12;100520.28;;;29.51;40.41
64404;BME280;50726;54.912;-8.392;2023-02-15T00:18:39;100524.88;;;31.18;39.43
64404;BME280;50726;54.912;-8.392;2023-02-15T00:21:08;100517.16;;;30.40;39.87
64404;BME280;50726;54.912;-8.392;2023-02-15T00:23:35;100501.25;;;28.46;41.66
64404;BME280;50726;54.912;-8.392;2023-02-15T00:26:08;100513.78;;;30.38;39.25
64404;BME280;50726;54.912;-8.392;2023-02-15T00:28:34;100508.06;;;30.41;39.12
64404;BME280;50726;54.912;-8.392;2023-02-15T00:33:29;100494.91;;;30.79;37.97
64404;BME280;50726;54.912;-8.392;2023-02-15T00:35:59;100503.03;;;31.44;38.07
64404;BME280;50726;54.912;-8.392;2023-02-15T00:38:26;100495.59;;;30.48;38.92
64404;BME280;50726;54.912;-8.392;2023-02-15T00:40:54;100487.31;;;30.17;38.10
64404;BME280;50726;54.912;-8.392;2023-02-15T00:43:20;100473.81;;;30.75;37.72
64404;BME280;50726;54.912;-8.392;2023-02-15T00:45:51;100474.78;;;30.07;39.54
64404;BME280;50726;54.912;-8.392;2023-02-15T00:48:18;100487.97;;;30.52;38.26
64404;BME280;50726;54.912;-8.392;2023-02-15T00:50:49;100462.47;;;29.88;39.71
64404;BME280;50726;54.912;-8.392;2023-02-15T00:53:16;100477.88;;;30.71;39.40
64404;BME280;50726;54.912;-8.392;2023-02-15T00:55:42;100441.78;;;29.45;39.32
64404;BME280;50726;54.912;-8.392;2023-02-15T00:58:09;100448.16;;;30.04;40.78
64404;BME280;50726;54.912;-8.392;2023-02-15T01:00:35;100489.84;;;30.26;41.49
64404;BME280;50726;54.912;-8.392;2023-02-15T01:03:01;100472.22;;;29.72;43.75
64404;BME280;50726;54.912;-8.392;2023-02-15T01:05:27;100486.31;;;30.34;45.39
64404;BME280;50726;54.912;-8.392;2023-02-15T01:07:55;100459.50;;;29.48;46.19
64404;BME280;50726;54.912;-8.392;2023-02-15T01:10:21;100493.25;;;29.34;47.30
64404;BME280;50726;54.912;-8.392;2023-02-15T01:12:47;100550.00;;;29.06;47.38
64404;BME280;50726;54.912;-8.392;2023-02-15T01:15:14;100540.25;;;29.74;47.37
64404;BME280;50726;54.912;-8.392;2023-02-15T01:17:40;100527.16;;;27.55;51.20
64404;BME280;50726;54.912;-8.392;2023-02-15T01:20:06;100559.09;;;27.58;53.65
64404;BME280;50726;54.912;-8.392;2023-02-15T01:22:32;100601.16;;;29.06;49.31
64404;BME280;50726;54.912;-8.392;2023-02-15T01:24:57;100567.22;;;29.13;47.02
64404;BME280;50726;54.912;-8.392;2023-02-15T01:27:23;100588.81;;;30.34;46.95
64404;BME280;50726;54.912;-8.392;2023-02-15T01:29:49;100610.09;;;28.52;48.48
64404;BME280;50726;54.912;-8.392;2023-02-15T01:32:15;100606.47;;;27.49;48.31
64404;BME280;50726;54.912;-8.392;2023-02-15T01:34:40;100633.63;;;26.27;50.10
64404;BME280;50726;54.912;-8.392;2023-02-15T01:37:06;100626.97;;;27.60;48.34
64404;BME280;50726;54.912;-8.392;2023-02-15T01:39:32;100629.56;;;26.63;49.71
64404;BME280;50726;54.912;-8.392;2023-02-15T01:41:57;100644.13;;;26.19;51.33
64404;BME280;50726;54.912;-8.392;2023-02-15T01:47:34;100648.34;;;27.90;49.49
64404;BME280;50726;54.912;-8.392;2023-02-15T01:52:57;100639.56;;;26.71;50.99
64404;BME280;50726;54.912;-8.392;2023-02-15T01:55:25;100653.72;;;26.83;52.27
64404;BME280;50726;54.912;-8.392;2023-02-15T01:57:52;100650.34;;;26.80;50.78
64404;BME280;50726;54.912;-8.392;2023-02-15T02:00:19;100661.22;;;26.99;50.88
64404;BME280;50726;54.912;-8.392;2023-02-15T02:02:46;100659.03;;;26.43;51.12
64404;BME280;50726;54.912;-8.392;2023-02-15T02:05:14;100655.13;;;26.16;51.58
64404;BME280;50726;54.912;-8.392;2023-02-15T02:07:43;100660.59;;;26.56;52.08
64404;BME280;50726;54.912;-8.392;2023-02-15T02:10:17;100659.53;;;27.27;50.65
64404;BME280;50726;54.912;-8.392;2023-02-15T02:12:45;100678.03;;;27.30;49.34
64404;BME280;50726;54.912;-8.392;2023-02-15T02:15:12;100664.97;;;27.55;49.13
64404;BME280;50726;54.912;-8.392;2023-02-15T02:21:51;100648.69;;;28.79;46.29
64404;BME280;50726;54.912;-8.392;2023-02-15T02:26:48;100654.22;;;29.14;46.02
64404;BME280;50726;54.912;-8.392;2023-02-15T02:34:59;100653.91;;;28.62;45.98
64404;BME280;50726;54.912;-8.392;2023-02-15T02:40:43;100654.41;;;30.00;44.21
64404;BME280;50726;54.912;-8.392;2023-02-15T02:46:10;100644.84;;;30.57;43.11
64404;BME280;50726;54.912;-8.392;2023-02-15T02:48:38;100650.72;;;29.21;45.50
64404;BME280;50726;54.912;-8.392;2023-02-15T02:51:04;100661.78;;;29.37;45.03
64404;BME280;50726;54.912;-8.392;2023-02-15T02:53:30;100664.03;;;28.50;46.40
64404;BME280;50726;54.912;-8.392;2023-02-15T02:56:01;100660.53;;;28.12;46.42
64404;BME280;50726;54.912;-8.392;2023-02-15T02:58:55;100647.28;;;30.25;43.33
64404;BME280;50726;54.912;-8.392;2023-02-15T03:01:34;100648.69;;;32.51;41.30
64404;BME280;50726;54.912;-8.392;2023-02-15T03:04:10;100645.28;;;32.57;40.70
64404;BME280;50726;54.912;-8.392;2023-02-15T03:06:45;100653.16;;;30.80;41.95
64404;BME280;50726;54.912;-8.392;2023-02-15T03:09:21;100649.44;;;31.15;41.69
64404;BME280;50726;54.912;-8.392;2023-02-15T03:11:50;100656.63;;;29.43;44.58
64404;BME280;50726;54.912;-8.392;2023-02-15T03:14:17;100649.13;;;29.29;43.14
64404;BME280;50726;54.912;-8.392;2023-02-15T03:16:46;100631.47;;;31.72;41.05
64404;BME280;50726;54.912;-8.392;2023-02-15T03:19:17;100627.66;;;31.41;40.81
64404;BME280;50726;54.912;-8.392;2023-02-15T03:21:47;100621.03;;;31.52;41.89
64404;BME280;50726;54.912;-8.392;2023-02-15T03:24:32;100616.03;;;28.92;47.19
64404;BME280;50726;54.912;-8.392;2023-02-15T03:27:03;100619.03;;;29.15;45.56
64404;BME280;50726;54.912;-8.392;2023-02-15T03:29:30;100625.19;;;29.26;46.25
64404;BME280;50726;54.912;-8.392;2023-02-15T03:32:00;100617.34;;;30.62;45.52
64404;BME280;50726;54.912;-8.392;2023-02-15T03:34:28;100619.25;;;28.96;44.52
64404;BME280;50726;54.912;-8.392;2023-02-15T03:39:44;100608.78;;;28.10;46.41
64404;BME280;50726;54.912;-8.392;2023-02-15T03:42:24;100606.81;;;27.26;46.76
64404;BME280;50726;54.912;-8.392;2023-02-15T03:45:24;100615.31;;;29.08;46.74
64404;BME280;50726;54.912;-8.392;2023-02-15T03:47:44;100630.59;;;28.71;45.40
64404;BME280;50726;54.912;-8.392;2023-02-15T03:50:16;100618.72;;;28.56;44.74
64404;BME280;50726;54.912;-8.392;2023-02-15T03:53:04;100604.28;;;29.81;44.01
64404;BME280;50726;54.912;-8.392;2023-02-15T03:55:31;100621.56;;;27.98;46.65
64404;BME280;50726;54.912;-8.392;2023-02-15T03:57:57;100607.66;;;27.27;46.59
64404;BME280;50726;54.912;-8.392;2023-02-15T04:00:48;100612.53;;;27.99;45.48
64404;BME280;50726;54.912;-8.392;2023-02-15T04:03:43;100614.59;;;29.51;44.91
64404;BME280;50726;54.912;-8.392;2023-02-15T04:06:10;100609.44;;;28.22;44.88
64404;BME280;50726;54.912;-8.392;2023-02-15T04:08:36;100599.53;;;29.66;43.06
64404;BME280;50726;54.912;-8.392;2023-02-15T04:11:20;100604.69;;;29.94;42.71
64404;BME280;50726;54.912;-8.392;2023-02-15T04:13:45;100604.56;;;30.72;41.12
64404;BME280;50726;54.912;-8.392;2023-02-15T04:16:11;100606.00;;;28.84;42.73
64404;BME280;50726;54.912;-8.392;2023-02-15T04:18:42;100605.28;;;29.18;41.35
64404;BME280;50726;54.912;-8.392;2023-02-15T04:21:29;100600.84;;;30.65;41.41
64404;BME280;50726;54.912;-8.392;2023-02-15T04:24:13;100606.78;;;27.46;45.52
64404;BME280;50726;54.912;-8.392;2023-02-15T04:26:58;100613.84;;;28.23;44.71
64404;BME280;50726;54.912;-8.392;2023-02-15T04:29:25;100601.75;;;28.27;44.42
64404;BME280;50726;54.912;-8.392;2023-02-15T04:31:51;100608.47;;;28.59;44.61
64404;BME280;50726;54.912;-8.392;2023-02-15T04:34:18;100593.88;;;27.50;44.75
64404;BME280;50726;54.912;-8.392;2023-02-15T04:36:43;100600.38;;;28.23;46.00
64404;BME280;50726;54.912;-8.392;2023-02-15T04:39:12;100589.94;;;28.74;45.12
64404;BME280;50726;54.912;-8.392;2023-02-15T04:41:38;100586.78;;;27.96;46.91
64404;BME280;50726;54.912;-8.392;2023-02-15T04:44:04;100598.63;;;28.50;46.19
64404;BME280;50726;54.912;-8.392;2023-02-15T04:46:29;100584.75;;;29.87;45.39
64404;BME280;50726;54.912;-8.392;2023-02-15T04:48:56;100594.44;;;27.53;47.19
64404;BME280;50726;54.912;-8.392;2023-02-15T04:51:22;100587.41;;;27.42;47.72
64404;BME280;50726;54.912;-8.392;2023-02-15T04:53:47;100585.94;;;28.24;46.85
64404;BME280;50726;54.912;-8.392;2023-02-15T04:56:13;100587.16;;;28.66;47.72
64404;BME280;50726;54.912;-8.392;2023-02-15T04:58:39;100578.00;;;27.56;45.95
64404;BME280;50726;54.912;-8.392;2023-02-15T05:01:08;100579.84;;;27.66;44.34
64404;BME280;50726;54.912;-8.392;2023-02-15T05:03:34;100577.28;;;27.26;45.45
64404;BME280;50726;54.912;-8.392;2023-02-15T05:06:00;100570.06;;;26.18;46.65
64404;BME280;50726;54.912;-8.392;2023-02-15T05:08:26;100574.28;;;27.77;45.70
64404;BME280;50726;54.912;-8.392;2023-02-15T05:10:52;100573.44;;;27.29;46.17
64404;BME280;50726;54.912;-8.392;2023-02-15T05:13:17;100582.19;;;25.71;48.42
64404;BME280;50726;54.912;-8.392;2023-02-15T05:15:48;100588.41;;;27.79;46.19
64404;BME280;50726;54.912;-8.392;2023-02-15T05:18:15;100594.00;;;25.16;48.28
64404;BME280;50726;54.912;-8.392;2023-02-15T05:20:41;100581.56;;;26.50;47.29
64404;BME280;50726;54.912;-8.392;2023-02-15T05:23:06;100579.88;;;27.94;44.33
64404;BME280;50726;54.912;-8.392;2023-02-15T05:25:32;100571.72;;;28.50;44.06
64404;BME280;50726;54.912;-8.392;2023-02-15T05:28:16;100574.25;;;27.87;44.86
64404;BME280;50726;54.912;-8.392;2023-02-15T05:33:23;100584.13;;;26.42;45.38
64404;BME280;50726;54.912;-8.392;2023-02-15T05:35:49;100584.38;;;27.65;44.81
64404;BME280;50726;54.912;-8.392;2023-02-15T05:38:14;100580.75;;;28.12;43.84
64404;BME280;50726;54.912;-8.392;2023-02-15T05:40:40;100575.75;;;27.61;44.69
64404;BME280;50726;54.912;-8.392;2023-02-15T05:43:05;100576.59;;;29.09;43.24
64404;BME280;50726;54.912;-8.392;2023-02-15T05:45:31;100569.94;;;28.77;42.95
64404;BME280;50726;54.912;-8.392;2023-02-15T05:47:57;100569.50;;;27.71;43.73
64404;BME280;50726;54.912;-8.392;2023-02-15T05:50:24;100575.47;;;29.73;43.56
64404;BME280;50726;54.912;-8.392;2023-02-15T05:52:49;100572.13;;;28.09;44.53
64404;BME280;50726;54.912;-8.392;2023-02-15T05:55:15;100571.34;;;28.45;43.72
64404;BME280;50726;54.912;-8.392;2023-02-15T05:57:41;100574.28;;;27.77;44.39
64404;BME280;50726;54.912;-8.392;2023-02-15T06:00:07;100577.22;;;27.46;45.91
64404;BME280;50726;54.912;-8.392;2023-02-15T06:02:36;100569.72;;;26.43;46.72
64404;BME280;50726;54.912;-8.392;2023-02-15T06:05:02;100576.41;;;25.66;47.51
64404;BME280;50726;54.912;-8.392;2023-02-15T06:07:28;100574.38;;;25.90;47.77
64404;BME280;50726;54.912;-8.392;2023-02-15T06:09:54;100569.84;;;26.41;47.10
64404;BME280;50726;54.912;-8.392;2023-02-15T06:12:20;100562.78;;;26.99;47.40
64404;BME280;50726;54.912;-8.392;2023-02-15T06:14:45;100556.13;;;26.34;46.42
64404;BME280;50726;54.912;-8.392;2023-02-15T06:17:12;100561.06;;;27.66;47.20
64404;BME280;50726;54.912;-8.392;2023-02-15T06:19:37;100560.31;;;25.66;47.43
64404;BME280;50726;54.912;-8.392;2023-02-15T06:22:03;100560.53;;;27.04;47.73
64404;BME280;50726;54.912;-8.392;2023-02-15T06:24:28;100564.28;;;27.21;46.34
64404;BME280;50726;54.912;-8.392;2023-02-15T06:26:54;100561.09;;;26.78;46.56
64404;BME280;50726;54.912;-8.392;2023-02-15T06:29:20;100553.13;;;27.92;44.59
64404;BME280;50726;54.912;-8.392;2023-02-15T06:31:45;100560.88;;;27.29;47.33
64404;BME280;50726;54.912;-8.392;2023-02-15T06:34:11;100561.44;;;27.99;45.46
64404;BME280;50726;54.912;-8.392;2023-02-15T06:36:36;100563.47;;;27.01;45.74
64404;BME280;50726;54.912;-8.392;2023-02-15T06:39:03;100557.41;;;25.69;47.09
64404;BME280;50726;54.912;-8.392;2023-02-15T06:41:28;100561.38;;;26.75;46.10
64404;BME280;50726;54.912;-8.392;2023-02-15T06:43:54;100551.06;;;26.31;47.86
64404;BME280;50726;54.912;-8.392;2023-02-15T06:46:20;100558.63;;;27.25;47.43
64404;BME280;50726;54.912;-8.392;2023-02-15T06:48:45;100562.50;;;27.02;47.29
64404;BME280;50726;54.912;-8.392;2023-02-15T06:51:11;100558.41;;;26.59;46.69
64404;BME280;50726;54.912;-8.392;2023-02-15T06:53:36;100554.03;;;26.97;46.99
64404;BME280;50726;54.912;-8.392;2023-02-15T06:56:04;100561.31;;;27.25;45.26
64404;BME280;50726;54.912;-8.392;2023-02-15T06:58:32;100556.16;;;27.51;45.16
64404;BME280;50726;54.912;-8.392;2023-02-15T07:00:59;100559.97;;;27.58;44.13
64404;BME280;50726;54.912;-8.392;2023-02-15T07:03:24;100549.16;;;25.61;46.43
64404;BME280;50726;54.912;-8.392;2023-02-15T07:05:54;100549.16;;;28.14;44.70
64404;BME280;50726;54.912;-8.392;2023-02-15T07:08:21;100559.25;;;26.49;46.19
64404;BME280;50726;54.912;-8.392;2023-02-15T07:10:48;100548.00;;;25.23;47.68
64404;BME280;50726;54.912;-8.392;2023-02-15T07:13:14;100561.63;;;25.72;48.04
64404;BME280;50726;54.912;-8.392;2023-02-15T07:15:40;100553.63;;;25.51;49.54
64404;BME280;50726;54.912;-8.392;2023-02-15T07:18:07;100560.44;;;28.00;45.32
64404;BME280;50726;54.912;-8.392;2023-02-15T07:20:34;100540.66;;;27.73;46.45
64404;BME280;50726;54.912;-8.392;2023-02-15T07:23:01;100537.50;;;27.02;47.62
64404;BME280;50726;54.912;-8.392;2023-02-15T07:25:29;100538.41;;;27.30;47.29
64404;BME280;50726;54.912;-8.392;2023-02-15T07:27:56;100532.66;;;27.15;47.22
64404;BME280;50726;54.912;-8.392;2023-02-15T07:30:23;100534.00;;;26.91;46.51
64404;BME280;50726;54.912;-8.392;2023-02-15T07:32:48;100536.97;;;26.59;46.48
64404;BME280;50726;54.912;-8.392;2023-02-15T07:35:33;100529.03;;;26.87;47.40
64404;BME280;50726;54.912;-8.392;2023-02-15T07:38:00;100533.72;;;26.55;51.17
64404;BME280;50726;54.912;-8.392;2023-02-15T07:40:26;100547.38;;;26.62;48.50
64404;BME280;50726;54.912;-8.392;2023-02-15T07:42:52;100536.41;;;26.55;47.81
64404;BME280;50726;54.912;-8.392;2023-02-15T07:45:20;100531.31;;;26.32;48.91
64404;BME280;50726;54.912;-8.392;2023-02-15T07:47:47;100545.47;;;25.83;51.39
64404;BME280;50726;54.912;-8.392;2023-02-15T07:50:15;100529.53;;;26.01;48.93
64404;BME280;50726;54.912;-8.392;2023-02-15T07:52:40;100538.22;;;26.64;49.44
64404;BME280;50726;54.912;-8.392;2023-02-15T07:55:06;100547.41;;;25.50;48.76
64404;BME280;50726;54.912;-8.392;2023-02-15T07:57:34;100544.06;;;26.09;50.58
64404;BME280;50726;54.912;-8.392;2023-02-15T08:00:00;100537.59;;;26.01;52.12
64404;BME280;50726;54.912;-8.392;2023-02-15T08:02:26;100536.53;;;26.63;50.73
64404;BME280;50726;54.912;-8.392;2023-02-15T08:04:54;100544.59;;;24.99;52.82
64404;BME280;50726;54.912;-8.392;2023-02-15T08:07:21;100537.91;;;25.67;51.15
64404;BME280;50726;54.912;-8.392;2023-02-15T08:09:46;100555.88;;;26.67;48.09
64404;BME280;50726;54.912;-8.392;2023-02-15T08:12:12;100541.03;;;25.72;51.53
64404;BME280;50726;54.912;-8.392;2023-02-15T08:14:38;100531.75;;;25.45;48.15
64404;BME280;50726;54.912;-8.392;2023-02-15T08:17:04;100536.69;;;26.42;49.16
64404;BME280;50726;54.912;-8.392;2023-02-15T08:19:32;100535.06;;;27.18;48.16
64404;BME280;50726;54.912;-8.392;2023-02-15T08:22:06;100538.09;;;26.96;49.43
64404;BME280;50726;54.912;-8.392;2023-02-15T08:24:33;100528.38;;;25.74;51.29
64404;BME280;50726;54.912;-8.392;2023-02-15T08:27:06;100524.97;;;27.68;50.26
64404;BME280;50726;54.912;-8.392;2023-02-15T08:29:35;100556.78;;;27.73;50.88
64404;BME280;50726;54.912;-8.392;2023-02-15T08:32:05;100527.81;;;27.29;51.77
64404;BME280;50726;54.912;-8.392;2023-02-15T08:34:33;100545.09;;;26.18;51.05
64404;BME280;50726;54.912;-8.392;2023-02-15T08:37:00;100548.53;;;26.69;51.04
64404;BME280;50726;54.912;-8.392;2023-02-15T08:39:26;100519.38;;;27.14;51.01
64404;BME280;50726;54.912;-8.392;2023-02-15T08:41:52;100510.97;;;26.69;49.85
64404;BME280;50726;54.912;-8.392;2023-02-15T08:44:19;100515.19;;;26.81;51.10
64404;BME280;50726;54.912;-8.392;2023-02-15T08:46:47;100535.81;;;26.32;49.81
64404;BME280;50726;54.912;-8.392;2023-02-15T08:49:16;100510.19;;;27.82;49.41
64404;BME280;50726;54.912;-8.392;2023-02-15T08:51:43;100538.78;;;26.38;51.15
64404;BME280;50726;54.912;-8.392;2023-02-15T08:54:12;100525.19;;;27.09;49.80
64404;BME280;50726;54.912;-8.392;2023-02-15T08:56:41;100551.19;;;27.46;50.56
64404;BME280;50726;54.912;-8.392;2023-02-15T08:59:15;100537.88;;;27.65;52.57
64404;BME280;50726;54.912;-8.392;2023-02-15T09:01:41;100536.94;;;26.78;51.41
64404;BME280;50726;54.912;-8.392;2023-02-15T09:04:07;100535.00;;;26.31;52.33
64404;BME280;50726;54.912;-8.392;2023-02-15T09:06:38;100528.06;;;26.48;51.96
64404;BME280;50726;54.912;-8.392;2023-02-15T09:09:05;100525.59;;;25.86;53.35
64404;BME280;50726;54.912;-8.392;2023-02-15T09:11:34;100538.03;;;26.86;51.64
64404;BME280;50726;54.912;-8.392;2023-02-15T09:14:05;100556.66;;;27.27;50.89
64404;BME280;50726;54.912;-8.392;2023-02-15T09:16:33;100523.09;;;27.03;50.17
64404;BME280;50726;54.912;-8.392;2023-02-15T09:19:00;100547.56;;;28.04;50.10
64404;BME280;50726;54.912;-8.392;2023-02-15T09:21:27;100542.31;;;27.46;51.19
64404;BME280;50726;54.912;-8.392;2023-02-15T09:23:59;100538.53;;;26.51;52.69
64404;BME280;50726;54.912;-8.392;2023-02-15T09:26:26;100523.81;;;26.56;52.40
64404;BME280;50726;54.912;-8.392;2023-02-15T09:28:54;100534.78;;;28.06;49.22
64404;BME280;50726;54.912;-8.392;2023-02-15T09:31:25;100554.53;;;28.61;50.16
64404;BME280;50726;54.912;-8.392;2023-02-15T09:33:52;100556.41;;;27.58;48.94
64404;BME280;50726;54.912;-8.392;2023-02-15T09:36:21;100554.31;;;28.08;49.16
64404;BME280;50726;54.912;-8.392;2023-02-15T09:38:53;100540.00;;;28.35;49.37
64404;BME280;50726;54.912;-8.392;2023-02-15T09:49:31;100549.16;;;28.61;50.04
64404;BME280;50726;54.912;-8.392;2023-02-15T09:52:14;100533.72;;;29.42;48.90
64404;BME280;50726;54.912;-8.392;2023-02-15T09:57:38;100525.81;;;25.73;53.54
64404;BME280;50726;54.912;-8.392;2023-02-15T10:00:31;100532.94;;;27.88;50.69
64404;BME280;50726;54.912;-8.392;2023-02-15T10:06:03;100534.13;;;26.80;52.92
64404;BME280;50726;54.912;-8.392;2023-02-15T10:11:37;100547.03;;;27.72;50.42
64404;BME280;50726;54.912;-8.392;2023-02-15T10:14:28;100534.44;;;28.55;49.49
64404;BME280;50726;54.912;-8.392;2023-02-15T10:25:31;100547.13;;;28.81;48.38
64404;BME280;50726;54.912;-8.392;2023-02-15T10:28:07;100522.50;;;27.47;51.01
64404;BME280;50726;54.912;-8.392;2023-02-15T10:30:42;100519.03;;;26.69;52.13
64404;BME280;50726;54.912;-8.392;2023-02-15T10:33:37;100518.97;;;28.31;50.05
64404;BME280;50726;54.912;-8.392;2023-02-15T10:36:32;100536.66;;;27.01;51.28
64404;BME280;50726;54.912;-8.392;2023-02-15T10:45:06;100547.59;;;28.22;50.59
64404;BME280;50726;54.912;-8.392;2023-02-15T10:47:54;100528.69;;;28.50;50.68
64404;BME280;50726;54.912;-8.392;2023-02-15T10:50:45;100540.09;;;29.41;48.51
64404;BME280;50726;54.912;-8.392;2023-02-15T10:53:24;100547.81;;;29.36;48.83
64404;BME280;50726;54.912;-8.392;2023-02-15T10:56:31;100542.50;;;29.96;48.18
64404;BME280;50726;54.912;-8.392;2023-02-15T11:07:38;100540.78;;;28.46;49.54
64404;BME280;50726;54.912;-8.392;2023-02-15T11:12:51;100524.94;;;28.61;48.58
64404;BME280;50726;54.912;-8.392;2023-02-15T11:17:56;100533.22;;;29.90;47.30
64404;BME280;50726;54.912;-8.392;2023-02-15T11:20:42;100520.78;;;29.19;47.13
64404;BME280;50726;54.912;-8.392;2023-02-15T11:23:17;100521.00;;;28.19;48.43
64404;BME280;50726;54.912;-8.392;2023-02-15T11:26:02;100525.06;;;28.59;48.33
64404;BME280;50726;54.912;-8.392;2023-02-15T11:28:37;100538.34;;;27.78;50.76
64404;BME280;50726;54.912;-8.392;2023-02-15T11:31:17;100501.78;;;28.13;48.23
64404;BME280;50726;54.912;-8.392;2023-02-15T11:33:46;100534.25;;;28.93;48.74
64404;BME280;50726;54.912;-8.392;2023-02-15T11:36:18;100508.56;;;28.36;47.69
64404;BME280;50726;54.912;-8.392;2023-02-15T11:38:46;100535.34;;;28.82;48.04
64404;BME280;50726;54.912;-8.392;2023-02-15T11:41:18;100536.63;;;27.59;47.57
64404;BME280;50726;54.912;-8.392;2023-02-15T11:43:47;100542.34;;;28.75;46.95
64404;BME280;50726;54.912;-8.392;2023-02-15T11:46:16;100530.47;;;28.59;49.49
64404;BME280;50726;54.912;-8.392;2023-02-15T11:48:44;100530.81;;;28.10;48.78
64404;BME280;50726;54.912;-8.392;2023-02-15T11:51:14;100510.81;;;28.40;47.30
64404;BME280;50726;54.912;-8.392;2023-02-15T11:53:42;100531.47;;;28.40;47.40
64404;BME280;50726;54.912;-8.392;2023-02-15T11:56:25;100496.88;;;27.63;48.29
64404;BME280;50726;54.912;-8.392;2023-02-15T11:59:06;100518.47;;;27.71;46.27
64404;BME280;50726;54.912;-8.392;2023-02-15T12:01:45;100507.03;;;28.51;48.37
64404;BME280;50726;54.912;-8.392;2023-02-15T12:04:30;100520.16;;;28.36;46.95
64404;BME280;50726;54.912;-8.392;2023-02-15T12:09:55;100536.34;;;30.12;45.46
64404;BME280;50726;54.912;-8.392;2023-02-15T12:12:34;100505.38;;;27.20;49.67
64404;BME280;50726;54.912;-8.392;2023-02-15T12:15:06;100502.28;;;27.15;49.28
64404;BME280;50726;54.912;-8.392;2023-02-15T12:17:35;100507.09;;;27.49;47.90
64404;BME280;50726;54.912;-8.392;2023-02-15T12:20:20;100502.63;;;27.30;49.27
64404;BME280;50726;54.912;-8.392;2023-02-15T12:22:55;100497.09;;;27.41;47.67
64404;BME280;50726;54.912;-8.392;2023-02-15T12:28:40;100475.66;;;27.31;50.93
64404;BME280;50726;54.912;-8.392;2023-02-15T12:34:01;100487.38;;;26.83;50.82
64404;BME280;50726;54.912;-8.392;2023-02-15T12:36:42;100492.06;;;26.80;51.38
64404;BME280;50726;54.912;-8.392;2023-02-15T12:41:44;100490.97;;;26.34;52.72
64404;BME280;50726;54.912;-8.392;2023-02-15T12:44:22;100459.47;;;26.56;49.62
64404;BME280;50726;54.912;-8.392;2023-02-15T12:47:19;100503.31;;;27.42;47.76
64404;BME280;50726;54.912;-8.392;2023-02-15T12:50:21;100495.84;;;26.09;51.42
64404;BME280;50726;54.912;-8.392;2023-02-15T12:55:33;100462.09;;;25.77;53.14
64404;BME280;50726;54.912;-8.392;2023-02-15T13:00:42;100502.81;;;27.66;51.07
64404;BME280;50726;54.912;-8.392;2023-02-15T13:03:17;100504.44;;;27.01;52.43
64404;BME280;50726;54.912;-8.392;2023-02-15T13:05:50;100506.94;;;27.13;51.78
64404;BME280;50726;54.912;-8.392;2023-02-15T13:08:43;100528.63;;;28.41;50.04
64404;BME280;50726;54.912;-8.392;2023-02-15T13:11:12;100489.16;;;27.96;51.53
64404;BME280;50726;54.912;-8.392;2023-02-15T13:13:59;100494.75;;;27.66;50.55
64404;BME280;50726;54.912;-8.392;2023-02-15T13:16:34;100500.78;;;28.14;50.86
64404;BME280;50726;54.912;-8.392;2023-02-15T13:19:12;100492.94;;;27.85;51.04
64404;BME280;50726;54.912;-8.392;2023-02-15T13:21:43;100475.72;;;27.50;50.30
64404;BME280;50726;54.912;-8.392;2023-02-15T13:24:32;100502.06;;;27.36;51.76
64404;BME280;50726;54.912;-8.392;2023-02-15T13:26:57;100488.97;;;28.44;50.30
64404;BME280;50726;54.912;-8.392;2023-02-15T13:29:34;100489.03;;;29.74;46.93
64404;BME280;50726;54.912;-8.392;2023-02-15T13:32:12;100469.63;;;28.66;47.41
64404;BME280;50726;54.912;-8.392;2023-02-15T13:34:40;100483.25;;;29.18;46.73
64404;BME280;50726;54.912;-8.392;2023-02-15T13:40:15;100469.34;;;29.74;44.94
64404;BME280;50726;54.912;-8.392;2023-02-15T13:57:11;100459.16;;;27.82;47.70
64404;BME280;50726;54.912;-8.392;2023-02-15T13:59:58;100487.97;;;29.16;47.17
64404;BME280;50726;54.912;-8.392;2023-02-15T14:08:27;100449.88;;;27.39;47.89
64404;BME280;50726;54.912;-8.392;2023-02-15T14:11:01;100460.44;;;27.22;48.56
64404;BME280;50726;54.912;-8.392;2023-02-15T14:19:45;100451.53;;;27.96;48.42
64404;BME280;50726;54.912;-8.392;2023-02-15T14:22:46;100484.09;;;28.65;47.81
64404;BME280;50726;54.912;-8.392;2023-02-15T14:25:27;100482.56;;;27.34;47.67
64404;BME280;50726;54.912;-8.392;2023-02-15T14:30:37;100473.69;;;26.76;50.74
64404;BME280;50726;54.912;-8.392;2023-02-15T14:35:54;100423.53;;;26.29;49.08
64404;BME280;50726;54.912;-8.392;2023-02-15T14:38:44;100400.91;;;28.09;47.33
64404;BME280;50726;54.912;-8.392;2023-02-15T14:41:19;100414.63;;;28.34;47.30
64404;BME280;50726;54.912;-8.392;2023-02-15T14:44:08;100490.59;;;27.72;47.15
64404;BME280;50726;54.912;-8.392;2023-02-15T14:49:23;100437.56;;;27.46;47.10
64404;BME280;50726;54.912;-8.392;2023-02-15T14:57:29;100454.03;;;26.95;48.39
64404;BME280;50726;54.912;-8.392;2023-02-15T15:02:18;100396.53;;;25.61;50.31
64404;BME280;50726;54.912;-8.392;2023-02-15T15:05:02;100419.06;;;28.07;48.75
64404;BME280;50726;54.912;-8.392;2023-02-15T15:12:54;100420.66;;;27.07;49.75
64404;BME280;50726;54.912;-8.392;2023-02-15T15:18:08;100415.75;;;27.03;51.43
64404;BME280;50726;54.912;-8.392;2023-02-15T15:25:47;100439.03;;;27.86;51.74
64404;BME280;50726;54.912;-8.392;2023-02-15T15:48:26;100423.94;;;27.57;50.76
64404;BME280;50726;54.912;-8.392;2023-02-15T15:50:59;100453.31;;;28.05;51.81
64404;BME280;50726;54.912;-8.392;2023-02-15T15:53:29;100449.41;;;27.25;51.54